This is the latest recevied weather packets stored in our database for station/object DC4AT. If no packets are shown the sender has not sent any weather packets the latest 10 day(s).
| Time | Temp. | Humidity | Pressure | Rain* | Wind** | Luminosity | Snow |
|---|---|---|---|---|---|---|---|
| 1777697024 | 8.89° C | 78% | 1022.6 hPa | 0 mm | - | 18 W/m² | - |
| 1777696424 | 9.44° C | 78% | 1022.7 hPa | 0 mm | - | 14 W/m² | - |
| 1777695824 | 8.89° C | 78% | 1022.5 hPa | 0 mm | - | 12 W/m² | - |
| 1777695224 | 9.44° C | 77% | 1022.6 hPa | 0 mm | - | 9 W/m² | - |
| 1777694624 | 9.44° C | 77% | 1022.7 hPa | 0 mm | - | 7 W/m² | - |
| 1777694024 | 9.44° C | 76% | 1022.7 hPa | 0 mm | - | 0 W/m² | - |
| 1777693424 | 9.44° C | 75% | 1022.8 hPa | 0 mm | - | 0 W/m² | - |
| 1777692824 | 10° C | 74% | 1022.7 hPa | 0 mm | - | 0 W/m² | - |
| 1777692224 | 10° C | 74% | 1022.8 hPa | 0 mm | - | 0 W/m² | - |
| 1777691624 | 10.56° C | 73% | 1022.8 hPa | 0 mm | - | 0 W/m² | - |
| 1777691024 | 10.56° C | 73% | 1022.8 hPa | 0 mm | - | 0 W/m² | - |
| 1777690424 | 10.56° C | 73% | 1022.9 hPa | 0 mm | - | 0 W/m² | - |
| 1777689824 | 10.56° C | 73% | 1022.9 hPa | 0 mm | - | 0 W/m² | - |
| 1777689224 | 10° C | 74% | 1023.1 hPa | 0 mm | - | 0 W/m² | - |
| 1777688624 | 10° C | 75% | 1023 hPa | 0 mm | - | 0 W/m² | - |
| 1777688024 | 10° C | 75% | 1023.1 hPa | 0 mm | - | 0 W/m² | - |
| 1777674225 | 12.78° C | 65% | 1024.5 hPa | 0 mm | - | 0 W/m² | - |
| 1777673625 | 12.78° C | 65% | 1024.4 hPa | 0 mm | - | 0 W/m² | - |
| 1777672425 | 13.33° C | 64% | 1024.5 hPa | 0 mm | - | 0 W/m² | - |
| 1777671225 | 13.89° C | 62% | 1024.5 hPa | 0 mm | - | 0 W/m² | - |
| 1777670025 | 13.89° C | 61% | 1024.5 hPa | 0 mm | - | 0 W/m² | - |
| 1777668225 | 15° C | 58% | 1024.6 hPa | 0 mm | - | 0 W/m² | - |
| 1777667625 | 15° C | 57% | 1024.6 hPa | 0 mm | - | 0 W/m² | - |
| 1777665825 | 15.56° C | 56% | 1024.7 hPa | 0 mm | - | 0 W/m² | - |
| 1777665225 | 15.56° C | 55% | 1024.7 hPa | 0 mm | - | 0 W/m² | - |
* Rain latest hour (hover to see other rain measurements)
** Current wind speed in m/s (hover to see current wind gust speed)